Hampton, Tennessee
Current Conditions -  °F | °C
As of 4:55 PM on Thursday 27 Nov 2014 (Local Time) from K0A9 Reporting Station
Light Snow Light Snow  
Wind Chill: 24°   Ceiling: 2800
Heat Index: 32°   Visibility: 5mi
Dew Point: 28°   Wind: 9mph
Humidity: 87%   Direction: 230°SW
Pressure: 30.24"   Gusts: NA
Location:  36.28°N, 82.17°W
Report Text: K0A9 272155Z AUTO 23008KT 5SM -SN BR SCT020 BKN028 OVC034 00/M02 A3024 RMK
Loading
Personal Weather Stations






























Interactive Weather Map New forecast layout! Learn more

10-Day Weather Forecast

Advertisements
Track Severe Weather on mobile